Pegasus Voyager — C6AP3 — position and weather

sailwx.info

Track history (hours):
 
Tides and Currents Weather Stations Pressure Air Temp Water Temp Dewpoint Dewpoint Depression Visibility Wind Speed Wind Dir Waves Ship Positions

Pegasus Voyager

Last reported at 2018-Feb-20 11:50 UTC. Time now 2018-Feb-20 12:04 UTC.
Position N 32°18' W 117°45'.

Length 276 m; draft 9.6 m.

Type: Ship (hazmat cat C). MMSI: 311000111.

Date/timePositionNaut miles runAvg speedWind from/ knotsBaromVisibWave heightAir tempDewpointWater temp
2018-Feb-20 11:50N 32°18' W 117°45'4 0.8
2018-Feb-20 06:27N 32°22' W 117°43'1 3.4
2018-Feb-20 06:00N 32°22' W 117°44'2 3.3
2018-Feb-20 05:30N 32°23' W 117°46'13 2.4
2018-Feb-20 00:10N 32°33' W 117°56'0 2.5
2018-Feb-20 00:00N 32°33' W 117°56'1 2.2
2018-Feb-19 23:30N 32°34' W 117°55'1 1.7
2018-Feb-19 22:59N 32°35' W 117°55'1 1.9
2018-Feb-19 22:30N 32°36' W 117°54'1 2.4
2018-Feb-19 22:00N 32°37' W 117°53'1 2.3
2018-Feb-19 21:30N 32°38' W 117°52'1 2.6
2018-Feb-19 21:00N 32°39' W 117°51'1 2.6
2018-Feb-19 20:30N 32°40' W 117°50'1 2.5
2018-Feb-19 20:00N 32°41' W 117°50'1 2.4
2018-Feb-19 19:30N 32°42' W 117°49'1 2.6
2018-Feb-19 18:59N 32°43' W 117°48'1 2.6
2018-Feb-19 18:30N 32°44' W 117°47'1 2.8
2018-Feb-19 18:00N 32°45' W 117°46'1 2.9
2018-Feb-19 17:30N 32°46' W 117°46'2 3.0
2018-Feb-19 16:58N 32°48' W 117°45'2 3.7
2018-Feb-19 16:30N 32°49' W 117°44'2 4.0
2018-Feb-19 15:58N 32°51' W 117°42'2 3.8
2018-Feb-19 15:30N 32°52' W 117°41'1 3.1
2018-Feb-19 15:00N 32°54' W 117°40'1 1.3
2018-Feb-19 14:17N 32°53' W 117°41'0 1.1
2018-Feb-19 13:59N 32°53' W 117°41'1 1.1
2018-Feb-19 13:29N 32°53' W 117°42'1 0.9
2018-Feb-19 12:53N 32°52' W 117°42'0 0.6
2018-Feb-19 12:29N 32°52' W 117°42'0 0.2
2018-Feb-19 11:59N 32°52' W 117°42'0 0.0
2018-Feb-19 11:29N 32°52' W 117°42'0 0.1
2018-Feb-19 10:59N 32°52' W 117°42'0 0.6
2018-Feb-19 10:29N 32°52' W 117°42'0 0.8
2018-Feb-19 09:59N 32°51' W 117°42'0 0.9
2018-Feb-19 09:29N 32°51' W 117°43'0 1.0
2018-Feb-19 08:59N 32°50' W 117°43'1 0.8
2018-Feb-19 08:23N 32°50' W 117°43'3 1.0
2018-Feb-19 05:29N 32°47' W 117°43'1 2.2
2018-Feb-19 05:00N 32°46' W 117°42'2 3.4
2018-Feb-19 04:30N 32°45' W 117°42'2 4.2
2018-Feb-19 04:00N 32°43' W 117°41'2 4.8
2018-Feb-19 03:30N 32°40' W 117°40'3 5.6
2018-Feb-19 03:01N 32°38' W 117°38'0 0.5
2018-Feb-19 02:30N 32°38' W 117°38'0 0.7
2018-Feb-19 02:00N 32°38' W 117°38'1 1.6
2018-Feb-19 01:30N 32°37' W 117°39'5 9.7
2018-Feb-19 01:00N 32°41' W 117°43'613.0
2018-Feb-19 00:31N 32°47' W 117°45'612.5
2018-Feb-19 00:00N 32°53' W 117°48'712.9
2018-Feb-18 23:30N 32°59' W 117°52'612.8
2018-Feb-18 23:00N 33°04' W 117°55'612.0
2018-Feb-18 22:30N 33°10' W 117°58'1 2.2
2018-Feb-18 22:00N 33°10' W 117°59'1 2.3
2018-Feb-18 21:30N 33°10' W 118°00'4 8.9
2018-Feb-18 21:00N 33°08' W 118°05'5 9.5
2018-Feb-18 20:30N 33°07' W 118°10'5 9.2
2018-Feb-18 20:00N 33°05' W 118°16'510.5
2018-Feb-18 19:30N 33°06' W 118°22'1111.8
2018-Feb-18 18:32N 33°11' W 118°34'211.6
2018-Feb-18 18:22N 33°12' W 118°36'410.7
2018-Feb-18 18:01N 33°14' W 118°40'4 7.8
2018-Feb-18 17:30N 33°14' W 118°45'5 9.6
2018-Feb-18 16:59N 33°14' W 118°51'3 6.4
2018-Feb-18 16:28N 33°12' W 118°54'511.4
2018-Feb-18 16:01N 33°09' W 118°60'713.2
2018-Feb-18 15:31N 33°06' W 119°06'713.2
2018-Feb-18 15:00N 33°02' W 119°13'612.9
2018-Feb-18 14:31N 32°60' W 119°20'713.1
2018-Feb-18 14:01N 32°58' W 119°27'612.8
2018-Feb-18 13:31N 32°58' W 119°35'713.4
2018-Feb-18 13:01N 32°60' W 119°43'712.9
2018-Feb-18 12:30N 33°01' W 119°50'612.8
2018-Feb-18 12:01N 33°03' W 119°58'812.3
2018-Feb-18 11:21N 33°06' W 120°06'412.8
2018-Feb-18 11:01N 33°09' W 120°10'612.5
2018-Feb-18 10:30N 33°14' W 120°15'612.5
2018-Feb-18 10:01N 33°19' W 120°20'612.5
2018-Feb-18 09:30N 33°23' W 120°26'612.8
2018-Feb-18 09:01N 33°28' W 120°31'612.4
2018-Feb-18 08:30N 33°32' W 120°36'712.2
2018-Feb-18 07:57N 33°37' W 120°41'612.5
2018-Feb-18 07:28N 33°42' W 120°46'612.6
2018-Feb-18 07:00N 33°46' W 120°51'612.3
2018-Feb-18 06:29N 33°51' W 120°55'612.7
2018-Feb-18 06:00N 33°56' W 120°59'712.6
2018-Feb-18 05:26N 34°02' W 121°04'614.0
2018-Feb-18 05:00N 34°08' W 121°07'814.9
2018-Feb-18 04:30N 34°14' W 121°12'714.9
2018-Feb-18 04:00N 34°20' W 121°17'815.5
2018-Feb-18 03:30N 34°27' W 121°21'815.1
2018-Feb-18 03:00N 34°34' W 121°26'715.0
2018-Feb-18 02:30N 34°40' W 121°31'815.3
2018-Feb-18 02:00N 34°47' W 121°35'1015.5
2018-Feb-18 01:23N 34°55' W 121°41'615.8
2018-Feb-18 01:00N 35°00' W 121°45'815.5
2018-Feb-18 00:30N 35°07' W 121°50'815.8
2018-Feb-18 00:00N 35°14' W 121°55'815.8
2018-Feb-17 23:28N 35°21' W 121°60'815.3
2018-Feb-17 22:59N 35°27' W 122°05'715.4
2018-Feb-17 22:30N 35°34' W 122°09'815.5
2018-Feb-17 22:00N 35°40' W 122°14'815.6
2018-Feb-17 21:30N 35°47' W 122°19'2615.5
2018-Feb-17 19:48N 36°10' W 122°35'615.3
2018-Feb-17 19:24N 36°15' W 122°39'614.9
2018-Feb-17 19:00N 36°20' W 122°43'814.9
2018-Feb-17 18:27N 36°27' W 122°48'715.0
2018-Feb-17 17:59N 36°34' W 122°51'2215.3
2018-Feb-17 16:32N 36°55' W 123°00'115.4
2018-Feb-17 16:29N 36°56' W 123°00'714.9
2018-Feb-17 16:00N 37°02' W 123°04'814.8
2018-Feb-17 15:27N 37°10' W 123°07'714.5
2018-Feb-17 15:00N 37°16' W 123°10'713.8
2018-Feb-17 14:30N 37°23' W 123°10'714.8
2018-Feb-17 14:00N 37°30' W 123°06'713.9
2018-Feb-17 13:30N 37°35' W 123°01'714.5
2018-Feb-17 13:00N 37°40' W 122°54'714.0
2018-Feb-17 12:30N 37°43' W 122°46'510.4
2018-Feb-17 12:01N 37°46' W 122°40'713.4
2018-Feb-17 11:31N 37°48' W 122°32'713.2
2018-Feb-17 11:01N 37°51' W 122°25'4 8.5
2018-Feb-17 10:30N 37°55' W 122°25'1 1.5
2018-Feb-17 10:00N 37°56' W 122°25'0 0.0
2018-Feb-17 09:30N 37°56' W 122°25'0 0.0
2018-Feb-17 09:00N 37°56' W 122°25'0 0.0
2018-Feb-17 08:30N 37°56' W 122°25'0 0.0
2018-Feb-17 08:00N 37°56' W 122°25'0 0.0
2018-Feb-17 07:30N 37°56' W 122°25'0 0.0
2018-Feb-17 07:00N 37°56' W 122°25'0 0.0
2018-Feb-17 06:30N 37°56' W 122°25'0 0.0
2018-Feb-17 06:00N 37°56' W 122°25'0 0.0
2018-Feb-17 05:30N 37°56' W 122°25'0 0.0
2018-Feb-17 05:00N 37°56' W 122°25'0 0.0
2018-Feb-17 04:24N 37°56' W 122°25'0 0.0
2018-Feb-17 04:00N 37°56' W 122°25'0 0.0
2018-Feb-17 03:30N 37°56' W 122°25'0 0.0
2018-Feb-17 03:00N 37°56' W 122°25'0 0.0
2018-Feb-17 02:30N 37°56' W 122°25'0 0.0
2018-Feb-17 02:00N 37°56' W 122°25'0 0.0
2018-Feb-17 01:30N 37°56' W 122°25'0 0.0
2018-Feb-17 01:00N 37°56' W 122°25'0 0.0
2018-Feb-17 00:30N 37°56' W 122°25'0 0.0
2018-Feb-17 00:00N 37°56' W 122°25'0 0.0
2018-Feb-16 23:30N 37°56' W 122°25'0 0.0
2018-Feb-16 23:00N 37°56' W 122°25'0 0.0
2018-Feb-16 22:30N 37°56' W 122°25'0 0.0
2018-Feb-16 22:00N 37°56' W 122°25'0 0.0
2018-Feb-16 21:30N 37°56' W 122°25'0 0.0
2018-Feb-16 21:00N 37°56' W 122°25'0 0.0
2018-Feb-16 20:30N 37°56' W 122°25'0 0.0
2018-Feb-16 20:00N 37°56' W 122°25'0 0.0
2018-Feb-16 19:30N 37°56' W 122°25'0 0.0
2018-Feb-16 19:00N 37°56' W 122°25'0 0.0
2018-Feb-16 18:30N 37°56' W 122°25'0 0.0
2018-Feb-16 18:00N 37°56' W 122°25'0 0.0
2018-Feb-16 17:30N 37°56' W 122°25'0 0.0
2018-Feb-16 17:00N 37°56' W 122°25'0 0.0
2018-Feb-16 16:24N 37°56' W 122°25'0 0.0
2018-Feb-16 16:00N 37°56' W 122°25'0 0.0
2018-Feb-16 15:30N 37°56' W 122°25'0 0.0
2018-Feb-16 15:00N 37°56' W 122°25'0 0.0
2018-Feb-16 14:30N 37°56' W 122°25'0 0.0
2018-Feb-16 14:00N 37°56' W 122°25'0 0.0
2018-Feb-16 13:30N 37°56' W 122°25'0 0.0
2018-Feb-16 13:00N 37°56' W 122°25'0 0.0
2018-Feb-16 12:30N 37°56' W 122°25'0 0.0
2018-Feb-16 12:00N 37°56' W 122°25'0 0.0
2018-Feb-16 11:30N 37°56' W 122°25'0 0.0
2018-Feb-16 11:00N 37°56' W 122°25'0 0.0
2018-Feb-16 10:30N 37°56' W 122°25'0 0.0
2018-Feb-16 10:00N 37°56' W 122°25'0 0.0
2018-Feb-16 09:30N 37°56' W 122°25'0 0.0
2018-Feb-16 09:00N 37°56' W 122°25'0 0.0
2018-Feb-16 08:30N 37°56' W 122°25'0 1.0
2018-Feb-16 08:00N 37°55' W 122°25'4 7.6
2018-Feb-16 07:30N 37°52' W 122°25'4 8.3
2018-Feb-16 07:00N 37°49' W 122°29'510.3
2018-Feb-16 06:30N 37°47' W 122°35'611.2
2018-Feb-16 06:00N 37°44' W 122°41'5 9.4
2018-Feb-16 05:30N 37°41' W 122°45'5 9.8
2018-Feb-16 05:00N 37°38' W 122°51'510.9
2018-Feb-16 04:30N 37°35' W 122°56'510.9
2018-Feb-16 04:00N 37°32' W 123°02'611.1
2018-Feb-16 03:30N 37°29' W 123°08'611.4
2018-Feb-16 03:00N 37°26' W 123°14'611.1
2018-Feb-16 02:30N 37°23' W 123°20'610.9
2018-Feb-16 02:00N 37°20' W 123°26'510.4
2018-Feb-16 01:30N 37°15' W 123°27'510.8
2018-Feb-16 01:00N 37°10' W 123°27'611.2
2018-Feb-16 00:30N 37°04' W 123°27'510.8
2018-Feb-16 00:00N 36°59' W 123°26'611.2
2018-Feb-15 23:30N 36°54' W 123°23'611.2
2018-Feb-15 23:00N 36°49' W 123°20'13611.3
2018-Feb-15 11:01N 34°49' W 122°02'112.3
2018-Feb-15 10:58N 34°49' W 122°01'1312.0
2018-Feb-15 09:53N 34°37' W 121°53'512.4
2018-Feb-15 09:30N 34°34' W 121°50'612.1
2018-Feb-15 09:00N 34°28' W 121°46'611.8
2018-Feb-15 08:30N 34°23' W 121°43'611.4
2018-Feb-15 08:00N 34°19' W 121°38'612.0
2018-Feb-15 07:30N 34°16' W 121°32'611.7
2018-Feb-15 07:00N 34°13' W 121°26'611.9
2018-Feb-15 06:30N 34°10' W 121°20'612.0
2018-Feb-15 06:00N 34°07' W 121°13'612.0
2018-Feb-15 05:29N 34°03' W 121°07'611.9
2018-Feb-15 04:59N 34°00' W 121°01'611.9
2018-Feb-15 04:30N 33°57' W 120°55'612.0
2018-Feb-15 04:00N 33°54' W 120°49'611.6
2018-Feb-15 03:30N 33°51' W 120°43'611.7
2018-Feb-15 02:58N 33°48' W 120°36'611.9
2018-Feb-15 02:29N 33°45' W 120°31'611.9
2018-Feb-15 02:00N 33°42' W 120°25'711.8
2018-Feb-15 01:26N 33°37' W 120°18'510.8
2018-Feb-15 00:59N 33°34' W 120°14'2 3.1
2018-Feb-15 00:30N 33°33' W 120°12'0 0.2
2018-Feb-15 00:00N 33°33' W 120°12'0 0.6
2018-Feb-14 23:30N 33°34' W 120°13'0 0.2
2018-Feb-14 23:00N 33°34' W 120°13'0 0.1
2018-Feb-14 22:29N 33°34' W 120°12'0 0.4
2018-Feb-14 21:58N 33°34' W 120°12'0 0.6
2018-Feb-14 21:30N 33°34' W 120°12'0 0.7
2018-Feb-14 21:00N 33°33' W 120°12'0 0.6
2018-Feb-14 20:29N 33°33' W 120°11'0 0.6
2018-Feb-14 20:00N 33°33' W 120°11'0 0.6
2018-Feb-14 19:30N 33°33' W 120°11'0 0.6
2018-Feb-14 19:00N 33°33' W 120°10'0 0.7
2018-Feb-14 18:29N 33°32' W 120°10'0 0.7
2018-Feb-14 18:00N 33°32' W 120°10'0 0.9
2018-Feb-14 17:30N 33°32' W 120°10'0 1.0
2018-Feb-14 17:00N 33°31' W 120°09'0 0.9
2018-Feb-14 16:29N 33°31' W 120°09'1 1.0
2018-Feb-14 16:00N 33°31' W 120°08'0 0.6
2018-Feb-14 15:30N 33°31' W 120°08'0 0.8
2018-Feb-14 15:00N 33°30' W 120°08'0 0.3
2018-Feb-14 14:30N 33°30' W 120°08'0 0.1
2018-Feb-14 14:00N 33°30' W 120°08'0 0.2
2018-Feb-14 13:30N 33°30' W 120°08'0 0.7
2018-Feb-14 12:53N 33°31' W 120°08'0 0.6
2018-Feb-14 12:30N 33°31' W 120°08'0 0.4
2018-Feb-14 12:00N 33°31' W 120°08'0 0.3
2018-Feb-14 11:30N 33°31' W 120°08'1 1.2
2018-Feb-14 11:00N 33°30' W 120°08'0 0.1
2018-Feb-14 10:29N 33°30' W 120°08'0 0.4
2018-Feb-14 10:00N 33°31' W 120°08'0 0.4
2018-Feb-14 09:30N 33°31' W 120°08'0 0.4
2018-Feb-14 09:00N 33°31' W 120°08'0 0.4
2018-Feb-14 08:30N 33°31' W 120°08'0 0.2
2018-Feb-14 08:00N 33°31' W 120°08'0 0.4
2018-Feb-14 07:30N 33°31' W 120°08'0 0.4
2018-Feb-14 06:59N 33°31' W 120°08'0 0.6
2018-Feb-14 06:30N 33°31' W 120°07'0 0.2
2018-Feb-14 06:00N 33°31' W 120°07'0 0.6
2018-Feb-14 05:30N 33°31' W 120°07'0 0.3
2018-Feb-14 05:00N 33°30' W 120°08'0 0.4
2018-Feb-14 04:30N 33°31' W 120°08'0 0.3
2018-Feb-14 03:59N 33°30' W 120°08'0 0.8
2018-Feb-14 03:30N 33°30' W 120°08'0 0.5
2018-Feb-14 03:00N 33°30' W 120°08'0 0.7
2018-Feb-14 02:30N 33°30' W 120°07'0 0.5
2018-Feb-14 02:00N 33°29' W 120°07'1 1.3
2018-Feb-14 01:29N 33°29' W 120°07'3 3.2
2018-Feb-14 00:39N 33°31' W 120°09'0 1.2
2018-Feb-14 00:30N 33°31' W 120°09'0 0.8
2018-Feb-14 00:00N 33°31' W 120°09'1 1.8
2018-Feb-13 23:30N 33°32' W 120°10'1 2.0
2018-Feb-13 23:00N 33°33' W 120°11'0 0.8
2018-Feb-13 22:30N 33°33' W 120°11'1 2.6
2018-Feb-13 21:57N 33°34' W 120°12'2 4.6
2018-Feb-13 21:30N 33°36' W 120°14'5 9.6
2018-Feb-13 21:00N 33°37' W 120°08'3610.5
2018-Feb-13 17:32N 33°44' W 119°25'111.2
2018-Feb-13 17:28N 33°44' W 119°24'510.7
2018-Feb-13 17:00N 33°45' W 119°18'511.0
2018-Feb-13 16:30N 33°46' W 119°12'510.6
2018-Feb-13 16:00N 33°47' W 119°05'510.7
2018-Feb-13 15:30N 33°47' W 118°59'510.9
2018-Feb-13 15:00N 33°46' W 118°53'610.7
2018-Feb-13 14:29N 33°46' W 118°46'4 8.9
2018-Feb-13 14:00N 33°48' W 118°41'510.0
2018-Feb-13 13:30N 33°51' W 118°36'610.6
2018-Feb-13 12:58N 33°54' W 118°30'2 5.2
2018-Feb-13 12:30N 33°54' W 118°28'0 0.0
2018-Feb-12 19:17N 33°54' W 118°27'0 0.0
2018-Feb-12 19:00N 33°54' W 118°27'0 0.6
2018-Feb-12 18:23N 33°54' W 118°27'2 2.8
2018-Feb-12 17:32N 33°52' W 118°30'0 0.8
2018-Feb-12 17:28N 33°52' W 118°30'3 2.6
2018-Feb-12 16:10N 33°50' W 118°32'1 8.2
2018-Feb-12 16:00N 33°48' W 118°33'5 9.1
2018-Feb-12 15:30N 33°44' W 118°35'5 9.3
2018-Feb-12 14:58N 33°40' W 118°38'4 9.5
2018-Feb-12 14:30N 33°36' W 118°41'6 9.3
2018-Feb-12 13:52N 33°31' W 118°44'3 9.2
2018-Feb-12 13:30N 33°28' W 118°44'5 9.4
2018-Feb-12 13:00N 33°23' W 118°44'4 8.7
2018-Feb-12 12:30N 33°19' W 118°42'17 9.2
2018-Feb-12 10:36N 33°08' W 118°26'1 9.6
2018-Feb-12 10:30N 33°08' W 118°25'15 9.8
2018-Feb-12 08:58N 33°04' W 118°07'510.1
2018-Feb-12 08:30N 33°03' W 118°02'510.3
2018-Feb-12 08:00N 33°02' W 117°56'3 6.0
2018-Feb-12 07:30N 33°02' W 117°52'1 1.1
2018-Feb-12 07:00N 33°02' W 117°52'1 1.6
2018-Feb-12 06:30N 33°01' W 117°52'0 0.7
2018-Feb-12 06:00N 33°01' W 117°52'0 0.6
2018-Feb-12 05:30N 33°02' W 117°52'0 0.5
2018-Feb-12 05:00N 33°02' W 117°52'0 0.3
2018-Feb-12 04:30N 33°02' W 117°52'0 0.4
2018-Feb-12 04:00N 33°02' W 117°52'0 0.8
2018-Feb-12 03:30N 33°03' W 117°52'1 1.3
2018-Feb-12 03:00N 33°02' W 117°51'1 2.3
2018-Feb-12 02:30N 33°01' W 117°52'0 0.7
2018-Feb-12 02:00N 33°02' W 117°51'0 0.7
2018-Feb-12 01:30N 33°02' W 117°51'0 0.7
2018-Feb-12 01:00N 33°02' W 117°51'0 0.7
2018-Feb-12 00:30N 33°03' W 117°51'0 0.6
2018-Feb-12 00:00N 33°03' W 117°51'0 0.5
2018-Feb-11 23:30N 33°03' W 117°51'0 0.2
2018-Feb-11 23:00N 33°03' W 117°52'0 0.4
2018-Feb-11 22:30N 33°03' W 117°52'0 0.8
2018-Feb-11 22:00N 33°03' W 117°51'1 1.2
2018-Feb-11 21:30N 33°02' W 117°51'1 1.1
2018-Feb-11 21:00N 33°02' W 117°50'0 0.9
2018-Feb-11 20:30N 33°01' W 117°50'0 0.3
2018-Feb-11 20:00N 33°02' W 117°50'0 0.7
2018-Feb-11 19:30N 33°02' W 117°50'0 0.7
2018-Feb-11 19:00N 33°02' W 117°50'0 0.6
2018-Feb-11 18:30N 33°03' W 117°50'0 0.4
2018-Feb-11 18:00N 33°03' W 117°50'0 0.2
2018-Feb-11 17:30N 33°03' W 117°50'0 0.8
2018-Feb-11 17:00N 33°02' W 117°51'1 1.6
2018-Feb-11 16:30N 33°03' W 117°52'0 0.1
2018-Feb-11 16:00N 33°03' W 117°52'0 0.2
2018-Feb-11 15:30N 33°02' W 117°52'0 0.5
2018-Feb-11 15:00N 33°03' W 117°52'0 0.6
2018-Feb-11 14:30N 33°03' W 117°52'0 0.5
2018-Feb-11 13:59N 33°03' W 117°52'0 0.4
2018-Feb-11 13:30N 33°03' W 117°52'0 0.3
2018-Feb-11 13:00N 33°03' W 117°52'0 0.2
2018-Feb-11 12:30N 33°03' W 117°51'0 0.3
2018-Feb-11 12:00N 33°04' W 117°51'0 0.5
2018-Feb-11 11:30N 33°04' W 117°51'1 1.4
2018-Feb-11 11:00N 33°03' W 117°51'1 2.0
2018-Feb-11 10:30N 33°02' W 117°51'0 0.7
2018-Feb-11 10:00N 33°02' W 117°51'0 0.6
2018-Feb-11 09:30N 33°03' W 117°51'0 0.2
2018-Feb-11 08:56N 33°03' W 117°51'1 1.0
2018-Feb-11 08:26N 33°02' W 117°51'0 0.9
2018-Feb-11 07:56N 33°02' W 117°50'0 1.0
2018-Feb-11 07:26N 33°01' W 117°50'1 1.1
2018-Feb-11 06:44N 33°01' W 117°50'0 1.0
2018-Feb-11 06:20N 33°00' W 117°49'0 0.7
2018-Feb-11 05:56N 33°00' W 117°49'0 0.6
2018-Feb-11 05:26N 32°60' W 117°49'0 0.7
2018-Feb-11 04:56N 32°60' W 117°49'0 0.8
2018-Feb-11 04:26N 32°59' W 117°49'0 0.9
2018-Feb-11 03:56N 32°59' W 117°48'1 0.9
2018-Feb-11 03:20N 32°58' W 117°48'0 0.9
2018-Feb-11 02:56N 32°58' W 117°48'0 1.0
2018-Feb-11 02:26N 32°58' W 117°48'1 1.1
2018-Feb-11 01:56N 32°57' W 117°47'0 1.0
2018-Feb-11 01:26N 32°57' W 117°47'1 1.2
2018-Feb-11 00:56N 32°56' W 117°47'0 0.5
2018-Feb-11 00:26N 32°56' W 117°46'0 0.2
2018-Feb-10 23:56N 32°56' W 117°47'0 0.5
2018-Feb-10 23:26N 32°56' W 117°47'0 0.6
2018-Feb-10 22:56N 32°56' W 117°47'0 0.6
2018-Feb-10 22:26N 32°56' W 117°47'1 0.8
2018-Feb-10 21:44N 32°57' W 117°48'0 0.6
2018-Feb-10 21:26N 32°57' W 117°48'0 0.9
2018-Feb-10 20:56N 32°57' W 117°48'0 0.8
2018-Feb-10 20:26N 32°57' W 117°49'0 0.8
2018-Feb-10 19:56N 32°58' W 117°49'0 0.9
2018-Feb-10 19:26N 32°58' W 117°49'0 0.8
2018-Feb-10 18:56N 32°58' W 117°50'0 0.8
2018-Feb-10 18:26N 32°59' W 117°50'0 0.7
2018-Feb-10 17:50N 32°59' W 117°50'0 0.8
2018-Feb-10 17:26N 32°59' W 117°51'0 0.8
2018-Feb-10 16:56N 32°59' W 117°51'0 0.7
2018-Feb-10 16:26N 32°60' W 117°51'0 0.6
2018-Feb-10 15:56N 32°60' W 117°52'0 0.7
2018-Feb-10 15:26N 33°00' W 117°52'0 0.6
2018-Feb-10 14:38N 33°01' W 117°52'0 0.9
2018-Feb-10 14:26N 33°01' W 117°52'1 1.7
2018-Feb-10 13:56N 33°01' W 117°53'1 3.0
2018-Feb-10 13:30N 33°03' W 117°53'2 4.3
2018-Feb-10 13:00N 33°04' W 117°55'2 4.3
2018-Feb-10 12:30N 33°06' W 117°56'2 4.8
2018-Feb-10 11:59N 33°08' W 117°57'  
Track history (hours):
 
Tides and Currents Weather Stations Pressure Air Temp Water Temp Dewpoint Dewpoint Depression Visibility Wind Speed Wind Dir Waves Ship Positions

Pegasus Voyager

Last reported at 2018-Feb-20 11:50 UTC. Time now 2018-Feb-20 12:04 UTC.
Position N 32°18' W 117°45'.

Length 276 m; draft 9.6 m.

Type: Ship (hazmat cat C). MMSI: 311000111.

Date/timePositionNaut miles runAvg speedWind from/ knotsBaromVisibWave heightAir tempDewpointWater temp
2018-Feb-20 11:50N 32°18' W 117°45'4 0.8
2018-Feb-20 06:27N 32°22' W 117°43'1 3.4
2018-Feb-20 06:00N 32°22' W 117°44'2 3.3
2018-Feb-20 05:30N 32°23' W 117°46'13 2.4
2018-Feb-20 00:10N 32°33' W 117°56'0 2.5
2018-Feb-20 00:00N 32°33' W 117°56'1 2.2
2018-Feb-19 23:30N 32°34' W 117°55'1 1.7
2018-Feb-19 22:59N 32°35' W 117°55'1 1.9
2018-Feb-19 22:30N 32°36' W 117°54'1 2.4
2018-Feb-19 22:00N 32°37' W 117°53'1 2.3
2018-Feb-19 21:30N 32°38' W 117°52'1 2.6
2018-Feb-19 21:00N 32°39' W 117°51'1 2.6
2018-Feb-19 20:30N 32°40' W 117°50'1 2.5
2018-Feb-19 20:00N 32°41' W 117°50'1 2.4
2018-Feb-19 19:30N 32°42' W 117°49'1 2.6
2018-Feb-19 18:59N 32°43' W 117°48'1 2.6
2018-Feb-19 18:30N 32°44' W 117°47'1 2.8
2018-Feb-19 18:00N 32°45' W 117°46'1 2.9
2018-Feb-19 17:30N 32°46' W 117°46'2 3.0
2018-Feb-19 16:58N 32°48' W 117°45'2 3.7
2018-Feb-19 16:30N 32°49' W 117°44'2 4.0
2018-Feb-19 15:58N 32°51' W 117°42'2 3.8
2018-Feb-19 15:30N 32°52' W 117°41'1 3.1
2018-Feb-19 15:00N 32°54' W 117°40'1 1.3
2018-Feb-19 14:17N 32°53' W 117°41'0 1.1
2018-Feb-19 13:59N 32°53' W 117°41'1 1.1
2018-Feb-19 13:29N 32°53' W 117°42'1 0.9
2018-Feb-19 12:53N 32°52' W 117°42'0 0.6
2018-Feb-19 12:29N 32°52' W 117°42'0 0.2
2018-Feb-19 11:59N 32°52' W 117°42'0 0.0
2018-Feb-19 11:29N 32°52' W 117°42'0 0.1
2018-Feb-19 10:59N 32°52' W 117°42'0 0.6
2018-Feb-19 10:29N 32°52' W 117°42'0 0.8
2018-Feb-19 09:59N 32°51' W 117°42'0 0.9
2018-Feb-19 09:29N 32°51' W 117°43'0 1.0
2018-Feb-19 08:59N 32°50' W 117°43'1 0.8
2018-Feb-19 08:23N 32°50' W 117°43'3 1.0
2018-Feb-19 05:29N 32°47' W 117°43'1 2.2
2018-Feb-19 05:00N 32°46' W 117°42'2 3.4
2018-Feb-19 04:30N 32°45' W 117°42'2 4.2
2018-Feb-19 04:00N 32°43' W 117°41'2 4.8
2018-Feb-19 03:30N 32°40' W 117°40'3 5.6
2018-Feb-19 03:01N 32°38' W 117°38'0 0.5
2018-Feb-19 02:30N 32°38' W 117°38'0 0.7
2018-Feb-19 02:00N 32°38' W 117°38'1 1.6
2018-Feb-19 01:30N 32°37' W 117°39'5 9.7
2018-Feb-19 01:00N 32°41' W 117°43'613.0
2018-Feb-19 00:31N 32°47' W 117°45'612.5
2018-Feb-19 00:00N 32°53' W 117°48'712.9
2018-Feb-18 23:30N 32°59' W 117°52'612.8
2018-Feb-18 23:00N 33°04' W 117°55'612.0
2018-Feb-18 22:30N 33°10' W 117°58'1 2.2
2018-Feb-18 22:00N 33°10' W 117°59'1 2.3
2018-Feb-18 21:30N 33°10' W 118°00'4 8.9
2018-Feb-18 21:00N 33°08' W 118°05'5 9.5
2018-Feb-18 20:30N 33°07' W 118°10'5 9.2
2018-Feb-18 20:00N 33°05' W 118°16'510.5
2018-Feb-18 19:30N 33°06' W 118°22'1111.8
2018-Feb-18 18:32N 33°11' W 118°34'211.6
2018-Feb-18 18:22N 33°12' W 118°36'410.7
2018-Feb-18 18:01N 33°14' W 118°40'4 7.8
2018-Feb-18 17:30N 33°14' W 118°45'5 9.6
2018-Feb-18 16:59N 33°14' W 118°51'3 6.4
2018-Feb-18 16:28N 33°12' W 118°54'511.4
2018-Feb-18 16:01N 33°09' W 118°60'713.2
2018-Feb-18 15:31N 33°06' W 119°06'713.2
2018-Feb-18 15:00N 33°02' W 119°13'612.9
2018-Feb-18 14:31N 32°60' W 119°20'713.1
2018-Feb-18 14:01N 32°58' W 119°27'612.8
2018-Feb-18 13:31N 32°58' W 119°35'713.4
2018-Feb-18 13:01N 32°60' W 119°43'712.9
2018-Feb-18 12:30N 33°01' W 119°50'612.8
2018-Feb-18 12:01N 33°03' W 119°58'812.3
2018-Feb-18 11:21N 33°06' W 120°06'412.8
2018-Feb-18 11:01N 33°09' W 120°10'612.5
2018-Feb-18 10:30N 33°14' W 120°15'612.5
2018-Feb-18 10:01N 33°19' W 120°20'612.5
2018-Feb-18 09:30N 33°23' W 120°26'612.8
2018-Feb-18 09:01N 33°28' W 120°31'612.4
2018-Feb-18 08:30N 33°32' W 120°36'712.2
2018-Feb-18 07:57N 33°37' W 120°41'612.5
2018-Feb-18 07:28N 33°42' W 120°46'612.6
2018-Feb-18 07:00N 33°46' W 120°51'612.3
2018-Feb-18 06:29N 33°51' W 120°55'612.7
2018-Feb-18 06:00N 33°56' W 120°59'712.6
2018-Feb-18 05:26N 34°02' W 121°04'614.0
2018-Feb-18 05:00N 34°08' W 121°07'814.9
2018-Feb-18 04:30N 34°14' W 121°12'714.9
2018-Feb-18 04:00N 34°20' W 121°17'815.5
2018-Feb-18 03:30N 34°27' W 121°21'815.1
2018-Feb-18 03:00N 34°34' W 121°26'715.0
2018-Feb-18 02:30N 34°40' W 121°31'815.3
2018-Feb-18 02:00N 34°47' W 121°35'1015.5
2018-Feb-18 01:23N 34°55' W 121°41'615.8
2018-Feb-18 01:00N 35°00' W 121°45'815.5
2018-Feb-18 00:30N 35°07' W 121°50'815.8
2018-Feb-18 00:00N 35°14' W 121°55'815.8
2018-Feb-17 23:28N 35°21' W 121°60'815.3
2018-Feb-17 22:59N 35°27' W 122°05'715.4
2018-Feb-17 22:30N 35°34' W 122°09'815.5
2018-Feb-17 22:00N 35°40' W 122°14'815.6
2018-Feb-17 21:30N 35°47' W 122°19'2615.5
2018-Feb-17 19:48N 36°10' W 122°35'615.3
2018-Feb-17 19:24N 36°15' W 122°39'614.9
2018-Feb-17 19:00N 36°20' W 122°43'814.9
2018-Feb-17 18:27N 36°27' W 122°48'715.0
2018-Feb-17 17:59N 36°34' W 122°51'2215.3
2018-Feb-17 16:32N 36°55' W 123°00'115.4
2018-Feb-17 16:29N 36°56' W 123°00'714.9
2018-Feb-17 16:00N 37°02' W 123°04'814.8
2018-Feb-17 15:27N 37°10' W 123°07'714.5
2018-Feb-17 15:00N 37°16' W 123°10'713.8
2018-Feb-17 14:30N 37°23' W 123°10'714.8
2018-Feb-17 14:00N 37°30' W 123°06'713.9
2018-Feb-17 13:30N 37°35' W 123°01'714.5
2018-Feb-17 13:00N 37°40' W 122°54'714.0
2018-Feb-17 12:30N 37°43' W 122°46'510.4
2018-Feb-17 12:01N 37°46' W 122°40'713.4
2018-Feb-17 11:31N 37°48' W 122°32'713.2
2018-Feb-17 11:01N 37°51' W 122°25'4 8.5
2018-Feb-17 10:30N 37°55' W 122°25'1 1.5
2018-Feb-17 10:00N 37°56' W 122°25'0 0.0
2018-Feb-17 09:30N 37°56' W 122°25'0 0.0
2018-Feb-17 09:00N 37°56' W 122°25'0 0.0
2018-Feb-17 08:30N 37°56' W 122°25'0 0.0
2018-Feb-17 08:00N 37°56' W 122°25'0 0.0
2018-Feb-17 07:30N 37°56' W 122°25'0 0.0
2018-Feb-17 07:00N 37°56' W 122°25'0 0.0
2018-Feb-17 06:30N 37°56' W 122°25'0 0.0
2018-Feb-17 06:00N 37°56' W 122°25'0 0.0
2018-Feb-17 05:30N 37°56' W 122°25'0 0.0
2018-Feb-17 05:00N 37°56' W 122°25'0 0.0
2018-Feb-17 04:24N 37°56' W 122°25'0 0.0
2018-Feb-17 04:00N 37°56' W 122°25'0 0.0
2018-Feb-17 03:30N 37°56' W 122°25'0 0.0
2018-Feb-17 03:00N 37°56' W 122°25'0 0.0
2018-Feb-17 02:30N 37°56' W 122°25'0 0.0
2018-Feb-17 02:00N 37°56' W 122°25'0 0.0
2018-Feb-17 01:30N 37°56' W 122°25'0 0.0
2018-Feb-17 01:00N 37°56' W 122°25'0 0.0
2018-Feb-17 00:30N 37°56' W 122°25'0 0.0
2018-Feb-17 00:00N 37°56' W 122°25'0 0.0
2018-Feb-16 23:30N 37°56' W 122°25'0 0.0
2018-Feb-16 23:00N 37°56' W 122°25'0 0.0
2018-Feb-16 22:30N 37°56' W 122°25'0 0.0
2018-Feb-16 22:00N 37°56' W 122°25'0 0.0
2018-Feb-16 21:30N 37°56' W 122°25'0 0.0
2018-Feb-16 21:00N 37°56' W 122°25'0 0.0
2018-Feb-16 20:30N 37°56' W 122°25'0 0.0
2018-Feb-16 20:00N 37°56' W 122°25'0 0.0
2018-Feb-16 19:30N 37°56' W 122°25'0 0.0
2018-Feb-16 19:00N 37°56' W 122°25'0 0.0
2018-Feb-16 18:30N 37°56' W 122°25'0 0.0
2018-Feb-16 18:00N 37°56' W 122°25'0 0.0
2018-Feb-16 17:30N 37°56' W 122°25'0 0.0
2018-Feb-16 17:00N 37°56' W 122°25'0 0.0
2018-Feb-16 16:24N 37°56' W 122°25'0 0.0
2018-Feb-16 16:00N 37°56' W 122°25'0 0.0
2018-Feb-16 15:30N 37°56' W 122°25'0 0.0
2018-Feb-16 15:00N 37°56' W 122°25'0 0.0
2018-Feb-16 14:30N 37°56' W 122°25'0 0.0
2018-Feb-16 14:00N 37°56' W 122°25'0 0.0
2018-Feb-16 13:30N 37°56' W 122°25'0 0.0
2018-Feb-16 13:00N 37°56' W 122°25'0 0.0
2018-Feb-16 12:30N 37°56' W 122°25'0 0.0
2018-Feb-16 12:00N 37°56' W 122°25'0 0.0
2018-Feb-16 11:30N 37°56' W 122°25'0 0.0
2018-Feb-16 11:00N 37°56' W 122°25'0 0.0
2018-Feb-16 10:30N 37°56' W 122°25'0 0.0
2018-Feb-16 10:00N 37°56' W 122°25'0 0.0
2018-Feb-16 09:30N 37°56' W 122°25'0 0.0
2018-Feb-16 09:00N 37°56' W 122°25'0 0.0
2018-Feb-16 08:30N 37°56' W 122°25'0 1.0
2018-Feb-16 08:00N 37°55' W 122°25'4 7.6
2018-Feb-16 07:30N 37°52' W 122°25'4 8.3
2018-Feb-16 07:00N 37°49' W 122°29'510.3
2018-Feb-16 06:30N 37°47' W 122°35'611.2
2018-Feb-16 06:00N 37°44' W 122°41'5 9.4
2018-Feb-16 05:30N 37°41' W 122°45'5 9.8
2018-Feb-16 05:00N 37°38' W 122°51'510.9
2018-Feb-16 04:30N 37°35' W 122°56'510.9
2018-Feb-16 04:00N 37°32' W 123°02'611.1
2018-Feb-16 03:30N 37°29' W 123°08'611.4
2018-Feb-16 03:00N 37°26' W 123°14'611.1
2018-Feb-16 02:30N 37°23' W 123°20'610.9
2018-Feb-16 02:00N 37°20' W 123°26'510.4
2018-Feb-16 01:30N 37°15' W 123°27'510.8
2018-Feb-16 01:00N 37°10' W 123°27'611.2
2018-Feb-16 00:30N 37°04' W 123°27'510.8
2018-Feb-16 00:00N 36°59' W 123°26'611.2
2018-Feb-15 23:30N 36°54' W 123°23'611.2
2018-Feb-15 23:00N 36°49' W 123°20'13611.3
2018-Feb-15 11:01N 34°49' W 122°02'112.3
2018-Feb-15 10:58N 34°49' W 122°01'1312.0
2018-Feb-15 09:53N 34°37' W 121°53'512.4
2018-Feb-15 09:30N 34°34' W 121°50'612.1
2018-Feb-15 09:00N 34°28' W 121°46'611.8
2018-Feb-15 08:30N 34°23' W 121°43'611.4
2018-Feb-15 08:00N 34°19' W 121°38'612.0
2018-Feb-15 07:30N 34°16' W 121°32'611.7
2018-Feb-15 07:00N 34°13' W 121°26'611.9
2018-Feb-15 06:30N 34°10' W 121°20'612.0
2018-Feb-15 06:00N 34°07' W 121°13'612.0
2018-Feb-15 05:29N 34°03' W 121°07'611.9
2018-Feb-15 04:59N 34°00' W 121°01'611.9
2018-Feb-15 04:30N 33°57' W 120°55'612.0
2018-Feb-15 04:00N 33°54' W 120°49'611.6
2018-Feb-15 03:30N 33°51' W 120°43'611.7
2018-Feb-15 02:58N 33°48' W 120°36'611.9
2018-Feb-15 02:29N 33°45' W 120°31'611.9
2018-Feb-15 02:00N 33°42' W 120°25'711.8
2018-Feb-15 01:26N 33°37' W 120°18'510.8
2018-Feb-15 00:59N 33°34' W 120°14'2 3.1
2018-Feb-15 00:30N 33°33' W 120°12'0 0.2
2018-Feb-15 00:00N 33°33' W 120°12'0 0.6
2018-Feb-14 23:30N 33°34' W 120°13'0 0.2
2018-Feb-14 23:00N 33°34' W 120°13'0 0.1
2018-Feb-14 22:29N 33°34' W 120°12'0 0.4
2018-Feb-14 21:58N 33°34' W 120°12'0 0.6
2018-Feb-14 21:30N 33°34' W 120°12'0 0.7
2018-Feb-14 21:00N 33°33' W 120°12'0 0.6
2018-Feb-14 20:29N 33°33' W 120°11'0 0.6
2018-Feb-14 20:00N 33°33' W 120°11'0 0.6
2018-Feb-14 19:30N 33°33' W 120°11'0 0.6
2018-Feb-14 19:00N 33°33' W 120°10'0 0.7
2018-Feb-14 18:29N 33°32' W 120°10'0 0.7
2018-Feb-14 18:00N 33°32' W 120°10'0 0.9
2018-Feb-14 17:30N 33°32' W 120°10'0 1.0
2018-Feb-14 17:00N 33°31' W 120°09'0 0.9
2018-Feb-14 16:29N 33°31' W 120°09'1 1.0
2018-Feb-14 16:00N 33°31' W 120°08'0 0.6
2018-Feb-14 15:30N 33°31' W 120°08'0 0.8
2018-Feb-14 15:00N 33°30' W 120°08'0 0.3
2018-Feb-14 14:30N 33°30' W 120°08'0 0.1
2018-Feb-14 14:00N 33°30' W 120°08'0 0.2
2018-Feb-14 13:30N 33°30' W 120°08'0 0.7
2018-Feb-14 12:53N 33°31' W 120°08'0 0.6
2018-Feb-14 12:30N 33°31' W 120°08'0 0.4
2018-Feb-14 12:00N 33°31' W 120°08'0 0.3
2018-Feb-14 11:30N 33°31' W 120°08'1 1.2
2018-Feb-14 11:00N 33°30' W 120°08'0 0.1
2018-Feb-14 10:29N 33°30' W 120°08'0 0.4
2018-Feb-14 10:00N 33°31' W 120°08'0 0.4
2018-Feb-14 09:30N 33°31' W 120°08'0 0.4
2018-Feb-14 09:00N 33°31' W 120°08'0 0.4
2018-Feb-14 08:30N 33°31' W 120°08'0 0.2
2018-Feb-14 08:00N 33°31' W 120°08'0 0.4
2018-Feb-14 07:30N 33°31' W 120°08'0 0.4
2018-Feb-14 06:59N 33°31' W 120°08'0 0.6
2018-Feb-14 06:30N 33°31' W 120°07'0 0.2
2018-Feb-14 06:00N 33°31' W 120°07'0 0.6
2018-Feb-14 05:30N 33°31' W 120°07'0 0.3
2018-Feb-14 05:00N 33°30' W 120°08'0 0.4
2018-Feb-14 04:30N 33°31' W 120°08'0 0.3
2018-Feb-14 03:59N 33°30' W 120°08'0 0.8
2018-Feb-14 03:30N 33°30' W 120°08'0 0.5
2018-Feb-14 03:00N 33°30' W 120°08'0 0.7
2018-Feb-14 02:30N 33°30' W 120°07'0 0.5
2018-Feb-14 02:00N 33°29' W 120°07'1 1.3
2018-Feb-14 01:29N 33°29' W 120°07'3 3.2
2018-Feb-14 00:39N 33°31' W 120°09'0 1.2
2018-Feb-14 00:30N 33°31' W 120°09'0 0.8
2018-Feb-14 00:00N 33°31' W 120°09'1 1.8
2018-Feb-13 23:30N 33°32' W 120°10'1 2.0
2018-Feb-13 23:00N 33°33' W 120°11'0 0.8
2018-Feb-13 22:30N 33°33' W 120°11'1 2.6
2018-Feb-13 21:57N 33°34' W 120°12'2 4.6
2018-Feb-13 21:30N 33°36' W 120°14'5 9.6
2018-Feb-13 21:00N 33°37' W 120°08'3610.5
2018-Feb-13 17:32N 33°44' W 119°25'111.2
2018-Feb-13 17:28N 33°44' W 119°24'510.7
2018-Feb-13 17:00N 33°45' W 119°18'511.0
2018-Feb-13 16:30N 33°46' W 119°12'510.6
2018-Feb-13 16:00N 33°47' W 119°05'510.7
2018-Feb-13 15:30N 33°47' W 118°59'510.9
2018-Feb-13 15:00N 33°46' W 118°53'610.7
2018-Feb-13 14:29N 33°46' W 118°46'4 8.9
2018-Feb-13 14:00N 33°48' W 118°41'510.0
2018-Feb-13 13:30N 33°51' W 118°36'610.6
2018-Feb-13 12:58N 33°54' W 118°30'2 5.2
2018-Feb-13 12:30N 33°54' W 118°28'0 0.0
2018-Feb-12 19:17N 33°54' W 118°27'0 0.0
2018-Feb-12 19:00N 33°54' W 118°27'0 0.6
2018-Feb-12 18:23N 33°54' W 118°27'2 2.8
2018-Feb-12 17:32N 33°52' W 118°30'0 0.8
2018-Feb-12 17:28N 33°52' W 118°30'3 2.6
2018-Feb-12 16:10N 33°50' W 118°32'1 8.2
2018-Feb-12 16:00N 33°48' W 118°33'5 9.1
2018-Feb-12 15:30N 33°44' W 118°35'5 9.3
2018-Feb-12 14:58N 33°40' W 118°38'4 9.5
2018-Feb-12 14:30N 33°36' W 118°41'6 9.3
2018-Feb-12 13:52N 33°31' W 118°44'3 9.2
2018-Feb-12 13:30N 33°28' W 118°44'5 9.4
2018-Feb-12 13:00N 33°23' W 118°44'4 8.7
2018-Feb-12 12:30N 33°19' W 118°42'17 9.2
2018-Feb-12 10:36N 33°08' W 118°26'1 9.6
2018-Feb-12 10:30N 33°08' W 118°25'15 9.8
2018-Feb-12 08:58N 33°04' W 118°07'510.1
2018-Feb-12 08:30N 33°03' W 118°02'510.3
2018-Feb-12 08:00N 33°02' W 117°56'3 6.0
2018-Feb-12 07:30N 33°02' W 117°52'1 1.1
2018-Feb-12 07:00N 33°02' W 117°52'1 1.6
2018-Feb-12 06:30N 33°01' W 117°52'0 0.7
2018-Feb-12 06:00N 33°01' W 117°52'0 0.6
2018-Feb-12 05:30N 33°02' W 117°52'0 0.5
2018-Feb-12 05:00N 33°02' W 117°52'0 0.3
2018-Feb-12 04:30N 33°02' W 117°52'0 0.4
2018-Feb-12 04:00N 33°02' W 117°52'0 0.8
2018-Feb-12 03:30N 33°03' W 117°52'1 1.3
2018-Feb-12 03:00N 33°02' W 117°51'1 2.3
2018-Feb-12 02:30N 33°01' W 117°52'0 0.7
2018-Feb-12 02:00N 33°02' W 117°51'0 0.7
2018-Feb-12 01:30N 33°02' W 117°51'0 0.7
2018-Feb-12 01:00N 33°02' W 117°51'0 0.7
2018-Feb-12 00:30N 33°03' W 117°51'0 0.6
2018-Feb-12 00:00N 33°03' W 117°51'0 0.5
2018-Feb-11 23:30N 33°03' W 117°51'0 0.2
2018-Feb-11 23:00N 33°03' W 117°52'0 0.4
2018-Feb-11 22:30N 33°03' W 117°52'0 0.8
2018-Feb-11 22:00N 33°03' W 117°51'1 1.2
2018-Feb-11 21:30N 33°02' W 117°51'1 1.1
2018-Feb-11 21:00N 33°02' W 117°50'0 0.9
2018-Feb-11 20:30N 33°01' W 117°50'0 0.3
2018-Feb-11 20:00N 33°02' W 117°50'0 0.7
2018-Feb-11 19:30N 33°02' W 117°50'0 0.7
2018-Feb-11 19:00N 33°02' W 117°50'0 0.6
2018-Feb-11 18:30N 33°03' W 117°50'0 0.4
2018-Feb-11 18:00N 33°03' W 117°50'0 0.2
2018-Feb-11 17:30N 33°03' W 117°50'0 0.8
2018-Feb-11 17:00N 33°02' W 117°51'1 1.6
2018-Feb-11 16:30N 33°03' W 117°52'0 0.1
2018-Feb-11 16:00N 33°03' W 117°52'0 0.2
2018-Feb-11 15:30N 33°02' W 117°52'0 0.5
2018-Feb-11 15:00N 33°03' W 117°52'0 0.6
2018-Feb-11 14:30N 33°03' W 117°52'0 0.5
2018-Feb-11 13:59N 33°03' W 117°52'0 0.4
2018-Feb-11 13:30N 33°03' W 117°52'0 0.3
2018-Feb-11 13:00N 33°03' W 117°52'0 0.2
2018-Feb-11 12:30N 33°03' W 117°51'0 0.3
2018-Feb-11 12:00N 33°04' W 117°51'0 0.5
2018-Feb-11 11:30N 33°04' W 117°51'1 1.4
2018-Feb-11 11:00N 33°03' W 117°51'1 2.0
2018-Feb-11 10:30N 33°02' W 117°51'0 0.7
2018-Feb-11 10:00N 33°02' W 117°51'0 0.6
2018-Feb-11 09:30N 33°03' W 117°51'0 0.2
2018-Feb-11 08:56N 33°03' W 117°51'1 1.0
2018-Feb-11 08:26N 33°02' W 117°51'0 0.9
2018-Feb-11 07:56N 33°02' W 117°50'0 1.0
2018-Feb-11 07:26N 33°01' W 117°50'1 1.1
2018-Feb-11 06:44N 33°01' W 117°50'0 1.0
2018-Feb-11 06:20N 33°00' W 117°49'0 0.7
2018-Feb-11 05:56N 33°00' W 117°49'0 0.6
2018-Feb-11 05:26N 32°60' W 117°49'0 0.7
2018-Feb-11 04:56N 32°60' W 117°49'0 0.8
2018-Feb-11 04:26N 32°59' W 117°49'0 0.9
2018-Feb-11 03:56N 32°59' W 117°48'1 0.9
2018-Feb-11 03:20N 32°58' W 117°48'0 0.9
2018-Feb-11 02:56N 32°58' W 117°48'0 1.0
2018-Feb-11 02:26N 32°58' W 117°48'1 1.1
2018-Feb-11 01:56N 32°57' W 117°47'0 1.0
2018-Feb-11 01:26N 32°57' W 117°47'1 1.2
2018-Feb-11 00:56N 32°56' W 117°47'0 0.5
2018-Feb-11 00:26N 32°56' W 117°46'0 0.2
2018-Feb-10 23:56N 32°56' W 117°47'0 0.5
2018-Feb-10 23:26N 32°56' W 117°47'0 0.6
2018-Feb-10 22:56N 32°56' W 117°47'0 0.6
2018-Feb-10 22:26N 32°56' W 117°47'1 0.8
2018-Feb-10 21:44N 32°57' W 117°48'0 0.6
2018-Feb-10 21:26N 32°57' W 117°48'0 0.9
2018-Feb-10 20:56N 32°57' W 117°48'0 0.8
2018-Feb-10 20:26N 32°57' W 117°49'0 0.8
2018-Feb-10 19:56N 32°58' W 117°49'0 0.9
2018-Feb-10 19:26N 32°58' W 117°49'0 0.8
2018-Feb-10 18:56N 32°58' W 117°50'0 0.8
2018-Feb-10 18:26N 32°59' W 117°50'0 0.7
2018-Feb-10 17:50N 32°59' W 117°50'0 0.8
2018-Feb-10 17:26N 32°59' W 117°51'0 0.8
2018-Feb-10 16:56N 32°59' W 117°51'0 0.7
2018-Feb-10 16:26N 32°60' W 117°51'0 0.6
2018-Feb-10 15:56N 32°60' W 117°52'0 0.7
2018-Feb-10 15:26N 33°00' W 117°52'0 0.6
2018-Feb-10 14:38N 33°01' W 117°52'0 0.9
2018-Feb-10 14:26N 33°01' W 117°52'1 1.7
2018-Feb-10 13:56N 33°01' W 117°53'1 3.0
2018-Feb-10 13:30N 33°03' W 117°53'2 4.3
2018-Feb-10 13:00N 33°04' W 117°55'2 4.3
2018-Feb-10 12:30N 33°06' W 117°56'2 4.8
2018-Feb-10 11:59N 33°08' W 117°57'  

Dump ship's entire track history